Sunflower Hakata — JL6711 — position and weather

sailwx.info

Track history (hours):
 
Tides and Currents Weather Stations Pressure Air Temp Water Temp Dewpoint Dewpoint Depression Visibility Wind Speed Wind Dir Waves Ship Positions

Sunflower Hakata

Last reported at 2018-Apr-21 01:58 UTC. Time now 2018-Apr-21 02:19 UTC.
Position N 35°37' E 139°48'.

Length 167 m; draft 6.6 m.

Type: Cargo ship. MMSI: 431501764.

Date/timePositionNaut miles runAvg speedWind from/ knotsBaromVisibWave heightAir tempDewpointWater temp
2018-Apr-21 01:58N 35°37' E 139°48'0 0.0
2018-Apr-21 01:28N 35°37' E 139°48'0 0.0
2018-Apr-21 00:58N 35°37' E 139°48'0 0.0
2018-Apr-21 00:25N 35°37' E 139°48'0 0.0
2018-Apr-20 23:46N 35°37' E 139°48'0 0.0
2018-Apr-20 23:28N 35°37' E 139°48'0 0.0
2018-Apr-20 22:58N 35°37' E 139°48'0 0.0
2018-Apr-20 22:28N 35°37' E 139°48'0 0.0
2018-Apr-20 21:58N 35°37' E 139°48'0 0.0
2018-Apr-20 21:28N 35°37' E 139°48'0 0.0
2018-Apr-20 20:58N 35°37' E 139°48'0 0.0
2018-Apr-20 20:31N 35°37' E 139°48'0 0.8
2018-Apr-20 20:00N 35°37' E 139°48'815.2
2018-Apr-20 19:30N 35°30' E 139°52'917.1
2018-Apr-20 18:59N 35°23' E 139°46'612.0
2018-Apr-20 18:30N 35°17' E 139°45'713.5
2018-Apr-20 18:00N 35°10' E 139°46'918.8
2018-Apr-20 17:30N 35°03' E 139°40'1019.9
2018-Apr-20 17:00N 34°56' E 139°31'1120.9
2018-Apr-20 16:29N 34°50' E 139°20'1321.7
2018-Apr-20 15:53N 34°41' E 139°08'921.4
2018-Apr-20 15:29N 34°35' E 139°00'1420.8
2018-Apr-20 14:50N 34°29' E 138°45'721.5
2018-Apr-20 14:30N 34°28' E 138°37'1121.9
2018-Apr-20 14:00N 34°26' E 138°24'1121.7
2018-Apr-20 13:30N 34°24' E 138°11'1321.7
2018-Apr-20 12:56N 34°22' E 137°56'1122.0
2018-Apr-20 12:25N 34°19' E 137°43'1321.5
2018-Apr-20 11:48N 34°17' E 137°27'721.3
2018-Apr-20 11:29N 34°15' E 137°19'2521.3
2018-Apr-20 10:17N 34°06' E 136°51'721.9
2018-Apr-20 09:58N 34°02' E 136°44'1121.9
2018-Apr-20 09:27N 33°55' E 136°33'2422.4
2018-Apr-20 08:23N 33°41' E 136°10'4517.9
2018-Apr-20 05:54N 33°39' E 135°17'922.1
2018-Apr-20 05:29N 33°46' E 135°09'1122.4
2018-Apr-20 05:00N 33°54' E 135°01'1121.9
2018-Apr-20 04:30N 34°05' E 134°59'1122.4
2018-Apr-20 04:00N 34°16' E 134°58'1121.7
2018-Apr-20 03:30N 34°27' E 135°01'1019.6
2018-Apr-20 03:00N 34°37' E 135°01'1019.6
2018-Apr-20 02:30N 34°34' E 134°50'1020.4
2018-Apr-20 02:00N 34°33' E 134°38'1121.4
2018-Apr-20 01:30N 34°34' E 134°25'1021.0
2018-Apr-20 01:01N 34°34' E 134°12'918.0
2018-Apr-20 00:30N 34°31' E 134°02'3 0.8
2018-Apr-19 20:44N 34°30' E 133°58'412.9
2018-Apr-19 20:23N 34°26' E 133°56'1017.7
2018-Apr-19 19:51N 34°21' E 133°47'720.8
2018-Apr-19 19:30N 34°18' E 133°38'4318.2
2018-Apr-19 17:06N 34°03' E 132°49'222.2
2018-Apr-19 17:00N 34°02' E 132°47'1322.5
2018-Apr-19 16:26N 33°53' E 132°36'1022.2
2018-Apr-19 15:59N 33°46' E 132°27'1222.6
2018-Apr-19 15:27N 33°43' E 132°13'1022.4
2018-Apr-19 15:00N 33°42' E 132°01'1122.6
2018-Apr-19 14:30N 33°45' E 131°48'1122.0
2018-Apr-19 14:00N 33°47' E 131°35'1121.9
2018-Apr-19 13:31N 33°49' E 131°22'1121.1
2018-Apr-19 13:00N 33°52' E 131°10'918.8
2018-Apr-19 12:31N 33°58' E 131°01'713.3
2018-Apr-19 12:01N 33°54' E 130°55'815.6
2018-Apr-19 11:31N 34°01' E 130°51'1121.6
2018-Apr-19 11:00N 34°02' E 130°38'1122.0
2018-Apr-19 10:31N 33°58' E 130°25'1020.7
2018-Apr-19 10:00N 33°49' E 130°19'1019.4
2018-Apr-19 09:31N 33°40' E 130°17'612.1
2018-Apr-19 08:59N 33°38' E 130°24'0 0.0
2018-Apr-19 08:29N 33°38' E 130°24'0 0.0
2018-Apr-19 07:59N 33°38' E 130°24'0 0.0
2018-Apr-19 07:29N 33°38' E 130°24'0 0.0
2018-Apr-19 06:56N 33°38' E 130°24'0 0.0
2018-Apr-19 06:29N 33°38' E 130°24'0 0.0
2018-Apr-19 05:59N 33°38' E 130°24'0 0.0
2018-Apr-19 05:29N 33°38' E 130°24'0 0.0
2018-Apr-19 04:59N 33°38' E 130°24'0 0.0
2018-Apr-19 04:29N 33°38' E 130°24'0 0.0
2018-Apr-19 03:59N 33°38' E 130°24'0 0.0
2018-Apr-19 03:29N 33°38' E 130°24'0 0.0
2018-Apr-19 02:59N 33°38' E 130°24'0 0.0
2018-Apr-19 02:26N 33°38' E 130°24'0 0.0
2018-Apr-19 01:59N 33°38' E 130°24'0 0.0
2018-Apr-19 01:29N 33°38' E 130°24'0 0.0
2018-Apr-19 00:59N 33°38' E 130°24'0 0.0
2018-Apr-19 00:29N 33°38' E 130°24'0 0.0
2018-Apr-18 23:59N 33°38' E 130°24'0 0.0
2018-Apr-18 23:29N 33°38' E 130°24'0 0.0
2018-Apr-18 22:59N 33°38' E 130°24'0 0.0
2018-Apr-18 22:29N 33°38' E 130°24'0 0.0
2018-Apr-18 21:59N 33°38' E 130°24'0 0.0
2018-Apr-18 21:29N 33°38' E 130°24'0 0.0
2018-Apr-18 20:59N 33°38' E 130°24'0 0.0
2018-Apr-18 20:31N 33°38' E 130°24'2 4.2
2018-Apr-18 20:00N 33°38' E 130°22'714.2
2018-Apr-18 19:30N 33°43' E 130°16'1019.5
2018-Apr-18 19:00N 33°52' E 130°20'917.5
2018-Apr-18 18:31N 33°58' E 130°27'1019.3
2018-Apr-18 18:01N 34°02' E 130°38'1019.2
2018-Apr-18 17:31N 34°03' E 130°49'815.2
2018-Apr-18 17:00N 33°56' E 130°53'611.6
2018-Apr-18 16:30N 33°59' E 130°59'917.9
2018-Apr-18 16:01N 33°54' E 131°08'918.2
2018-Apr-18 15:30N 33°51' E 131°19'510.7
2018-Apr-18 15:01N 33°50' E 131°25'510.2
2018-Apr-18 14:30N 33°49' E 131°31'1019.5
2018-Apr-18 14:00N 33°46' E 131°42'918.0
2018-Apr-18 13:31N 33°39' E 131°49'6 9.7
2018-Apr-18 12:52N 33°34' E 131°52'410.7
2018-Apr-18 12:30N 33°30' E 131°54'1221.2
2018-Apr-18 11:57N 33°19' E 131°60'21916.5
2018-Apr-17 22:38N 33°47' E 136°21'622.3
2018-Apr-17 22:22N 33°50' E 136°27'1022.4
2018-Apr-17 21:55N 33°57' E 136°36'1022.5
2018-Apr-17 21:29N 34°02' E 136°46'2422.2
2018-Apr-17 20:23N 34°13' E 137°12'2822.4
2018-Apr-17 19:08N 34°20' E 137°45'422.4
2018-Apr-17 18:58N 34°21' E 137°50'1022.0
2018-Apr-17 18:30N 34°23' E 138°02'1421.8
2018-Apr-17 17:50N 34°26' E 138°19'721.7
2018-Apr-17 17:30N 34°28' E 138°27'1121.9
2018-Apr-17 16:59N 34°30' E 138°41'1121.9
2018-Apr-17 16:30N 34°32' E 138°54'1020.3
2018-Apr-17 16:00N 34°38' E 139°04'1121.3
2018-Apr-17 15:29N 34°46' E 139°12'1021.4
2018-Apr-17 15:00N 34°54' E 139°21'1020.7
2018-Apr-17 14:31N 34°60' E 139°32'1121.2
2018-Apr-17 14:00N 35°06' E 139°42'917.9
2018-Apr-17 13:30N 35°14' E 139°46'612.8
2018-Apr-17 13:00N 35°20' E 139°43'918.7
2018-Apr-17 12:31N 35°28' E 139°48'817.0
2018-Apr-17 12:01N 35°36' E 139°50'2 2.6
2018-Apr-17 11:11N 35°37' E 139°48'0 0.0
2018-Apr-17 10:20N 35°37' E 139°48'0 0.0
2018-Apr-17 09:53N 35°37' E 139°48'0 0.0
2018-Apr-17 09:23N 35°37' E 139°48'0 0.0
2018-Apr-17 08:53N 35°37' E 139°48'0 0.0
2018-Apr-17 08:29N 35°37' E 139°48'0 0.0
2018-Apr-17 07:11N 35°37' E 139°48'0 0.0
2018-Apr-17 04:50N 35°37' E 139°48'0 0.0
2018-Apr-17 02:56N 35°37' E 139°48'0 0.0
2018-Apr-17 02:29N 35°37' E 139°48'0 0.0
2018-Apr-17 01:56N 35°37' E 139°48'0 0.0
2018-Apr-17 01:23N 35°37' E 139°48'0 0.0
2018-Apr-17 00:17N 35°37' E 139°48'0 0.0
2018-Apr-16 23:47N 35°37' E 139°48'0 0.0
2018-Apr-16 23:29N 35°37' E 139°48'0 0.3
2018-Apr-16 22:56N 35°37' E 139°48'0 0.0
2018-Apr-16 22:29N 35°37' E 139°48'0 0.0
2018-Apr-16 21:53N 35°37' E 139°48'0 0.0
2018-Apr-16 21:29N 35°37' E 139°48'0 0.0
2018-Apr-16 20:59N 35°37' E 139°48'0 0.0
2018-Apr-16 20:29N 35°37' E 139°48'0 0.0
2018-Apr-16 19:56N 35°37' E 139°48'0 0.0
2018-Apr-16 19:29N 35°37' E 139°48'0 0.0
2018-Apr-16 18:59N 35°37' E 139°48'0 0.0
2018-Apr-16 18:29N 35°37' E 139°48'0 0.0
2018-Apr-16 17:59N 35°37' E 139°48'0 0.0
2018-Apr-16 17:29N 35°37' E 139°48'0 0.0
2018-Apr-16 16:56N 35°37' E 139°48'0 0.0
2018-Apr-16 16:29N 35°37' E 139°48'0 0.0
2018-Apr-16 15:53N 35°37' E 139°48'0 0.0
2018-Apr-16 15:29N 35°37' E 139°48'0 0.0
2018-Apr-16 14:59N 35°37' E 139°48'0 0.0
2018-Apr-16 14:29N 35°37' E 139°48'0 0.0
2018-Apr-16 13:59N 35°37' E 139°48'0 0.0
2018-Apr-16 13:29N 35°37' E 139°48'0 0.0
2018-Apr-16 12:56N 35°37' E 139°48'0 0.0
2018-Apr-16 12:29N 35°37' E 139°48'0 0.0
2018-Apr-16 11:59N 35°37' E 139°48'0 0.0
2018-Apr-16 11:29N 35°37' E 139°48'0 0.0
2018-Apr-16 10:56N 35°37' E 139°48'0 0.0
2018-Apr-16 10:23N 35°37' E 139°48'0 0.0
2018-Apr-16 09:59N 35°37' E 139°48'0 0.0
2018-Apr-16 09:26N 35°37' E 139°48'0 0.0
2018-Apr-16 08:56N 35°37' E 139°48'0 0.0
2018-Apr-16 08:29N 35°37' E 139°48'0 0.0
2018-Apr-16 07:59N 35°37' E 139°48'0 0.0
2018-Apr-16 07:29N 35°37' E 139°48'0 0.0
2018-Apr-16 06:59N 35°37' E 139°48'0 0.0
2018-Apr-16 06:29N 35°37' E 139°48'0 0.0
2018-Apr-16 05:59N 35°37' E 139°48'0 0.0
2018-Apr-16 05:29N 35°37' E 139°48'0 0.0
2018-Apr-16 04:53N 35°37' E 139°48'0 0.0
2018-Apr-16 04:29N 35°37' E 139°48'0 0.0
2018-Apr-16 03:59N 35°37' E 139°48'0 0.0
2018-Apr-16 03:29N 35°37' E 139°48'0 0.0
2018-Apr-16 02:53N 35°37' E 139°48'0 0.0
2018-Apr-16 02:26N 35°37' E 139°48'0 0.0
2018-Apr-16 01:59N 35°37' E 139°48'0 0.0
2018-Apr-16 01:29N 35°37' E 139°48'0 0.0
2018-Apr-16 00:53N 35°37' E 139°48'0 0.0
2018-Apr-16 00:29N 35°37' E 139°48'0 0.0
2018-Apr-15 23:53N 35°37' E 139°48'0 0.0
2018-Apr-15 23:29N 35°37' E 139°48'0 0.0
2018-Apr-15 22:59N 35°37' E 139°48'0 0.0
2018-Apr-15 22:29N 35°37' E 139°48'0 0.0
2018-Apr-15 21:59N 35°37' E 139°48'0 0.0
2018-Apr-15 21:23N 35°37' E 139°48'0 0.0
2018-Apr-15 21:00N 35°37' E 139°48'0 0.4
2018-Apr-15 20:29N 35°37' E 139°47'510.8
2018-Apr-15 20:01N 35°33' E 139°52'816.5
2018-Apr-15 19:30N 35°25' E 139°47'713.5
2018-Apr-15 19:00N 35°19' E 139°44'612.7
2018-Apr-15 18:30N 35°13' E 139°47'917.7
2018-Apr-15 18:00N 35°05' E 139°44'1019.6
2018-Apr-15 17:30N 34°58' E 139°35'1120.9
2018-Apr-15 16:59N 34°52' E 139°24'1020.7
2018-Apr-15 16:30N 34°46' E 139°14'1020.5
2018-Apr-15 16:00N 34°39' E 139°05'1019.9
2018-Apr-15 15:30N 34°33' E 138°56'1121.7
2018-Apr-15 15:00N 34°31' E 138°43'1121.3
2018-Apr-15 14:29N 34°31' E 138°29'1121.7
2018-Apr-15 14:00N 34°30' E 138°17'1122.0
2018-Apr-15 13:30N 34°29' E 138°04'6520.9
2018-Apr-15 10:23N 34°08' E 136°49'1120.2
2018-Apr-15 09:50N 34°00' E 136°39'7117.9
2018-Apr-15 05:52N 33°35' E 135°19'921.3
2018-Apr-15 05:28N 33°42' E 135°12'1021.9
2018-Apr-15 05:00N 33°49' E 135°04'1121.8
2018-Apr-15 04:30N 33°59' E 134°59'1122.5
2018-Apr-15 04:00N 34°10' E 134°58'1224.0
2018-Apr-15 03:31N 34°22' E 134°60'1122.9
2018-Apr-15 03:01N 34°33' E 135°03'816.9
2018-Apr-15 02:30N 34°35' E 134°53'1121.3
2018-Apr-15 02:01N 34°33' E 134°40'1122.1
2018-Apr-15 01:30N 34°34' E 134°27'1121.7
2018-Apr-15 01:00N 34°34' E 134°13'919.0
2018-Apr-15 00:30N 34°31' E 134°02'4 7.6
2018-Apr-15 00:00N 34°31' E 133°58'0 0.0
2018-Apr-14 21:19N 34°31' E 133°58'5 5.1
2018-Apr-14 20:26N 34°26' E 133°56'1417.9
2018-Apr-14 19:38N 34°18' E 133°42'319.2
2018-Apr-14 19:30N 34°18' E 133°39'4317.7
2018-Apr-14 17:04N 34°04' E 132°49'221.0
2018-Apr-14 16:58N 34°02' E 132°48'919.8
2018-Apr-14 16:30N 33°56' E 132°40'1020.7
2018-Apr-14 16:00N 33°49' E 132°31'1221.3
2018-Apr-14 15:27N 33°44' E 132°18'1521.3
2018-Apr-14 14:45N 33°42' E 131°60'622.9
2018-Apr-14 14:30N 33°43' E 131°53'1223.1
2018-Apr-14 14:00N 33°46' E 131°40'1223.2
2018-Apr-14 13:31N 33°49' E 131°26'1122.8
2018-Apr-14 13:00N 33°51' E 131°13'1020.0
2018-Apr-14 12:31N 33°57' E 131°03'612.0
2018-Apr-14 12:00N 33°55' E 130°56'4 8.8
2018-Apr-14 11:31N 33°59' E 130°53'1019.1
2018-Apr-14 11:01N 34°03' E 130°42'1122.8
2018-Apr-14 10:31N 33°58' E 130°29'1121.2
2018-Apr-14 10:00N 33°51' E 130°20'1121.3
2018-Apr-14 09:31N 33°41' E 130°16'815.9
2018-Apr-14 09:00N 33°37' E 130°24'0 0.9
2018-Apr-14 08:29N 33°38' E 130°24'0 0.0
2018-Apr-14 07:59N 33°38' E 130°24'0 0.0
2018-Apr-14 07:29N 33°38' E 130°24'0 0.0
2018-Apr-14 06:59N 33°38' E 130°24'0 0.0
2018-Apr-14 06:29N 33°38' E 130°24'0 0.0
2018-Apr-14 05:59N 33°38' E 130°24'0 0.0
2018-Apr-14 05:29N 33°38' E 130°24'0 0.0
2018-Apr-14 04:59N 33°38' E 130°24'0 0.0
2018-Apr-14 04:29N 33°38' E 130°24'0 0.0
2018-Apr-14 03:59N 33°38' E 130°24'0 0.0
2018-Apr-14 03:29N 33°38' E 130°24'0 0.0
2018-Apr-14 02:59N 33°38' E 130°24'0 0.0
2018-Apr-14 02:29N 33°38' E 130°24'0 0.0
2018-Apr-14 01:59N 33°38' E 130°24'0 0.0
2018-Apr-14 01:29N 33°38' E 130°24'0 0.0
2018-Apr-14 00:59N 33°38' E 130°24'0 0.0
2018-Apr-14 00:29N 33°38' E 130°24'0 0.0
2018-Apr-13 23:59N 33°38' E 130°24'0 0.0
2018-Apr-13 23:29N 33°38' E 130°24'0 0.0
2018-Apr-13 22:59N 33°38' E 130°24'0 0.0
2018-Apr-13 22:29N 33°38' E 130°24'0 0.0
2018-Apr-13 21:59N 33°38' E 130°24'0 0.0
2018-Apr-13 21:29N 33°38' E 130°24'0 0.0
2018-Apr-13 20:59N 33°38' E 130°24'0 0.0
2018-Apr-13 20:30N 33°38' E 130°24'1 2.5
2018-Apr-13 20:00N 33°37' E 130°23'714.1
2018-Apr-13 19:30N 33°41' E 130°16'918.6
2018-Apr-13 19:00N 33°50' E 130°19'1019.7
2018-Apr-13 18:30N 33°58' E 130°26'1020.5
2018-Apr-13 18:00N 34°03' E 130°37'1020.3
2018-Apr-13 17:30N 34°02' E 130°49'816.2
2018-Apr-13 17:00N 33°55' E 130°53'511.0
2018-Apr-13 16:30N 33°58' E 130°59'815.5
2018-Apr-13 16:00N 33°55' E 131°07'918.1
2018-Apr-13 15:30N 33°51' E 131°17'917.5
2018-Apr-13 15:00N 33°49' E 131°27'918.0
2018-Apr-13 14:30N 33°47' E 131°38'612.0
2018-Apr-13 14:00N 33°45' E 131°44'1019.1
2018-Apr-13 13:30N 33°36' E 131°49'918.6
2018-Apr-13 13:00N 33°27' E 131°52'1019.6
2018-Apr-13 12:30N 33°19' E 131°46'4 6.0
2018-Apr-13 11:52N 33°15' E 131°45'0 0.0
2018-Apr-13 11:25N 33°15' E 131°45'0 0.6
2018-Apr-13 10:58N 33°15' E 131°44'510.0
2018-Apr-13 10:30N 33°18' E 131°49'1020.9
2018-Apr-13 10:00N 33°16' E 132°01'1222.9
2018-Apr-13 09:30N 33°07' E 132°09'19919.5
2018-Apr-12 23:19N 33°37' E 136°05'1822.5
2018-Apr-12 22:31N 33°49' E 136°21'122.0
2018-Apr-12 22:27N 33°50' E 136°23'1122.7
2018-Apr-12 21:58N 33°57' E 136°33'1122.4
2018-Apr-12 21:30N 34°03' E 136°43'5121.7
2018-Apr-12 19:11N 34°19' E 137°41'421.7
2018-Apr-12 19:00N 34°20' E 137°45'1221.5
2018-Apr-12 18:26N 34°22' E 138°00'921.2
2018-Apr-12 18:00N 34°24' E 138°11'1021.0
2018-Apr-12 17:30N 34°27' E 138°23'1020.8
2018-Apr-12 17:00N 34°29' E 138°35'1020.7
2018-Apr-12 16:30N 34°31' E 138°48'1019.9
2018-Apr-12 16:00N 34°35' E 138°59'1322.2
2018-Apr-12 15:25N 34°44' E 139°10'921.6
2018-Apr-12 15:00N 34°51' E 139°17'1020.0
2018-Apr-12 14:30N 34°57' E 139°27'1121.3
2018-Apr-12 14:00N 35°03' E 139°38'1019.7
2018-Apr-12 13:30N 35°10' E 139°45'713.4
2018-Apr-12 13:00N 35°17' E 139°45'714.7
2018-Apr-12 12:31N 35°24' E 139°43'1019.6
2018-Apr-12 12:00N 35°32' E 139°51'611.6
2018-Apr-12 11:30N 35°37' E 139°48'0 0.2
2018-Apr-12 10:54N 35°37' E 139°48'0 0.0
2018-Apr-12 10:27N 35°37' E 139°48'0 0.0
2018-Apr-12 09:30N 35°37' E 139°48'0 0.0
2018-Apr-12 08:54N 35°37' E 139°48'0 0.0
2018-Apr-12 08:30N 35°37' E 139°48'0 0.0
2018-Apr-12 07:42N 35°37' E 139°48'0 0.0
2018-Apr-12 07:18N 35°37' E 139°48'0 0.0
2018-Apr-12 06:54N 35°37' E 139°48'0 0.0
2018-Apr-12 06:27N 35°37' E 139°48'0 0.0
2018-Apr-12 06:00N 35°37' E 139°48'0 0.0
2018-Apr-12 05:30N 35°37' E 139°48'0 0.0
2018-Apr-12 05:00N 35°37' E 139°48'0 0.0
2018-Apr-12 04:24N 35°37' E 139°48'0 0.0
2018-Apr-12 04:00N 35°37' E 139°48'0 0.0
2018-Apr-12 03:27N 35°37' E 139°48'0 0.0
2018-Apr-12 03:00N 35°37' E 139°48'0 0.0
2018-Apr-12 02:27N 35°37' E 139°48'0 0.0
2018-Apr-12 01:51N 35°37' E 139°48'0 0.0
2018-Apr-12 01:30N 35°37' E 139°48'0 0.0
2018-Apr-12 00:51N 35°37' E 139°48'0 0.0
2018-Apr-12 00:24N 35°37' E 139°48'0 0.0
2018-Apr-11 23:12N 35°37' E 139°48'0 0.0
2018-Apr-11 23:00N 35°37' E 139°48'0 0.0
2018-Apr-11 22:30N 35°37' E 139°48'0 0.0
2018-Apr-11 21:54N 35°37' E 139°48'0 0.0
2018-Apr-11 21:30N 35°37' E 139°48'0 0.0
2018-Apr-11 21:00N 35°37' E 139°48'0 0.0
2018-Apr-11 20:30N 35°37' E 139°48'0 0.7
2018-Apr-11 20:01N 35°37' E 139°48'611.7
2018-Apr-11 19:30N 35°32' E 139°52'917.5
2018-Apr-11 19:00N 35°24' E 139°46'612.8
2018-Apr-11 18:30N 35°18' E 139°45'612.6
2018-Apr-11 18:00N 35°12' E 139°47'1019.3
2018-Apr-11 17:30N 35°03' E 139°42'1020.8
2018-Apr-11 17:00N 34°57' E 139°32'1422.2
2018-Apr-11 16:23N 34°49' E 139°18'1521.4
2018-Apr-11 15:41N 34°38' E 139°06'420.5
2018-Apr-11 15:30N 34°35' E 139°03'1622.2
2018-Apr-11 14:47N 34°30' E 138°45'722.9
2018-Apr-11 14:30N 34°29' E 138°36'1222.7
2018-Apr-11 13:58N 34°26' E 138°22'1022.4
2018-Apr-11 13:30N 34°24' E 138°10'1121.8
2018-Apr-11 13:00N 34°21' E 137°57'6121.4
2018-Apr-11 10:10N 34°02' E 136°48'422.2
2018-Apr-11 10:00N 33°60' E 136°44'8517.2
2018-Apr-11 05:03N 33°52' E 135°02'121.8
2018-Apr-11 05:00N 33°53' E 135°01'1020.7
2018-Apr-11 04:31N 34°03' E 134°59'1121.1
2018-Apr-11 04:01N 34°14' E 134°58'1121.7
2018-Apr-11 03:30N 34°24' E 135°00'1121.2
2018-Apr-11 03:00N 34°35' E 135°04'1019.6
2018-Apr-11 02:31N 34°34' E 134°52'1121.7
2018-Apr-11 02:00N 34°33' E 134°39'  
Track history (hours):
 
Tides and Currents Weather Stations Pressure Air Temp Water Temp Dewpoint Dewpoint Depression Visibility Wind Speed Wind Dir Waves Ship Positions

Sunflower Hakata

Last reported at 2018-Apr-21 01:58 UTC. Time now 2018-Apr-21 02:19 UTC.
Position N 35°37' E 139°48'.

Length 167 m; draft 6.6 m.

Type: Cargo ship. MMSI: 431501764.

Date/timePositionNaut miles runAvg speedWind from/ knotsBaromVisibWave heightAir tempDewpointWater temp
2018-Apr-21 01:58N 35°37' E 139°48'0 0.0
2018-Apr-21 01:28N 35°37' E 139°48'0 0.0
2018-Apr-21 00:58N 35°37' E 139°48'0 0.0
2018-Apr-21 00:25N 35°37' E 139°48'0 0.0
2018-Apr-20 23:46N 35°37' E 139°48'0 0.0
2018-Apr-20 23:28N 35°37' E 139°48'0 0.0
2018-Apr-20 22:58N 35°37' E 139°48'0 0.0
2018-Apr-20 22:28N 35°37' E 139°48'0 0.0
2018-Apr-20 21:58N 35°37' E 139°48'0 0.0
2018-Apr-20 21:28N 35°37' E 139°48'0 0.0
2018-Apr-20 20:58N 35°37' E 139°48'0 0.0
2018-Apr-20 20:31N 35°37' E 139°48'0 0.8
2018-Apr-20 20:00N 35°37' E 139°48'815.2
2018-Apr-20 19:30N 35°30' E 139°52'917.1
2018-Apr-20 18:59N 35°23' E 139°46'612.0
2018-Apr-20 18:30N 35°17' E 139°45'713.5
2018-Apr-20 18:00N 35°10' E 139°46'918.8
2018-Apr-20 17:30N 35°03' E 139°40'1019.9
2018-Apr-20 17:00N 34°56' E 139°31'1120.9
2018-Apr-20 16:29N 34°50' E 139°20'1321.7
2018-Apr-20 15:53N 34°41' E 139°08'921.4
2018-Apr-20 15:29N 34°35' E 139°00'1420.8
2018-Apr-20 14:50N 34°29' E 138°45'721.5
2018-Apr-20 14:30N 34°28' E 138°37'1121.9
2018-Apr-20 14:00N 34°26' E 138°24'1121.7
2018-Apr-20 13:30N 34°24' E 138°11'1321.7
2018-Apr-20 12:56N 34°22' E 137°56'1122.0
2018-Apr-20 12:25N 34°19' E 137°43'1321.5
2018-Apr-20 11:48N 34°17' E 137°27'721.3
2018-Apr-20 11:29N 34°15' E 137°19'2521.3
2018-Apr-20 10:17N 34°06' E 136°51'721.9
2018-Apr-20 09:58N 34°02' E 136°44'1121.9
2018-Apr-20 09:27N 33°55' E 136°33'2422.4
2018-Apr-20 08:23N 33°41' E 136°10'4517.9
2018-Apr-20 05:54N 33°39' E 135°17'922.1
2018-Apr-20 05:29N 33°46' E 135°09'1122.4
2018-Apr-20 05:00N 33°54' E 135°01'1121.9
2018-Apr-20 04:30N 34°05' E 134°59'1122.4
2018-Apr-20 04:00N 34°16' E 134°58'1121.7
2018-Apr-20 03:30N 34°27' E 135°01'1019.6
2018-Apr-20 03:00N 34°37' E 135°01'1019.6
2018-Apr-20 02:30N 34°34' E 134°50'1020.4
2018-Apr-20 02:00N 34°33' E 134°38'1121.4
2018-Apr-20 01:30N 34°34' E 134°25'1021.0
2018-Apr-20 01:01N 34°34' E 134°12'918.0
2018-Apr-20 00:30N 34°31' E 134°02'3 0.8
2018-Apr-19 20:44N 34°30' E 133°58'412.9
2018-Apr-19 20:23N 34°26' E 133°56'1017.7
2018-Apr-19 19:51N 34°21' E 133°47'720.8
2018-Apr-19 19:30N 34°18' E 133°38'4318.2
2018-Apr-19 17:06N 34°03' E 132°49'222.2
2018-Apr-19 17:00N 34°02' E 132°47'1322.5
2018-Apr-19 16:26N 33°53' E 132°36'1022.2
2018-Apr-19 15:59N 33°46' E 132°27'1222.6
2018-Apr-19 15:27N 33°43' E 132°13'1022.4
2018-Apr-19 15:00N 33°42' E 132°01'1122.6
2018-Apr-19 14:30N 33°45' E 131°48'1122.0
2018-Apr-19 14:00N 33°47' E 131°35'1121.9
2018-Apr-19 13:31N 33°49' E 131°22'1121.1
2018-Apr-19 13:00N 33°52' E 131°10'918.8
2018-Apr-19 12:31N 33°58' E 131°01'713.3
2018-Apr-19 12:01N 33°54' E 130°55'815.6
2018-Apr-19 11:31N 34°01' E 130°51'1121.6
2018-Apr-19 11:00N 34°02' E 130°38'1122.0
2018-Apr-19 10:31N 33°58' E 130°25'1020.7
2018-Apr-19 10:00N 33°49' E 130°19'1019.4
2018-Apr-19 09:31N 33°40' E 130°17'612.1
2018-Apr-19 08:59N 33°38' E 130°24'0 0.0
2018-Apr-19 08:29N 33°38' E 130°24'0 0.0
2018-Apr-19 07:59N 33°38' E 130°24'0 0.0
2018-Apr-19 07:29N 33°38' E 130°24'0 0.0
2018-Apr-19 06:56N 33°38' E 130°24'0 0.0
2018-Apr-19 06:29N 33°38' E 130°24'0 0.0
2018-Apr-19 05:59N 33°38' E 130°24'0 0.0
2018-Apr-19 05:29N 33°38' E 130°24'0 0.0
2018-Apr-19 04:59N 33°38' E 130°24'0 0.0
2018-Apr-19 04:29N 33°38' E 130°24'0 0.0
2018-Apr-19 03:59N 33°38' E 130°24'0 0.0
2018-Apr-19 03:29N 33°38' E 130°24'0 0.0
2018-Apr-19 02:59N 33°38' E 130°24'0 0.0
2018-Apr-19 02:26N 33°38' E 130°24'0 0.0
2018-Apr-19 01:59N 33°38' E 130°24'0 0.0
2018-Apr-19 01:29N 33°38' E 130°24'0 0.0
2018-Apr-19 00:59N 33°38' E 130°24'0 0.0
2018-Apr-19 00:29N 33°38' E 130°24'0 0.0
2018-Apr-18 23:59N 33°38' E 130°24'0 0.0
2018-Apr-18 23:29N 33°38' E 130°24'0 0.0
2018-Apr-18 22:59N 33°38' E 130°24'0 0.0
2018-Apr-18 22:29N 33°38' E 130°24'0 0.0
2018-Apr-18 21:59N 33°38' E 130°24'0 0.0
2018-Apr-18 21:29N 33°38' E 130°24'0 0.0
2018-Apr-18 20:59N 33°38' E 130°24'0 0.0
2018-Apr-18 20:31N 33°38' E 130°24'2 4.2
2018-Apr-18 20:00N 33°38' E 130°22'714.2
2018-Apr-18 19:30N 33°43' E 130°16'1019.5
2018-Apr-18 19:00N 33°52' E 130°20'917.5
2018-Apr-18 18:31N 33°58' E 130°27'1019.3
2018-Apr-18 18:01N 34°02' E 130°38'1019.2
2018-Apr-18 17:31N 34°03' E 130°49'815.2
2018-Apr-18 17:00N 33°56' E 130°53'611.6
2018-Apr-18 16:30N 33°59' E 130°59'917.9
2018-Apr-18 16:01N 33°54' E 131°08'918.2
2018-Apr-18 15:30N 33°51' E 131°19'510.7
2018-Apr-18 15:01N 33°50' E 131°25'510.2
2018-Apr-18 14:30N 33°49' E 131°31'1019.5
2018-Apr-18 14:00N 33°46' E 131°42'918.0
2018-Apr-18 13:31N 33°39' E 131°49'6 9.7
2018-Apr-18 12:52N 33°34' E 131°52'410.7
2018-Apr-18 12:30N 33°30' E 131°54'1221.2
2018-Apr-18 11:57N 33°19' E 131°60'21916.5
2018-Apr-17 22:38N 33°47' E 136°21'622.3
2018-Apr-17 22:22N 33°50' E 136°27'1022.4
2018-Apr-17 21:55N 33°57' E 136°36'1022.5
2018-Apr-17 21:29N 34°02' E 136°46'2422.2
2018-Apr-17 20:23N 34°13' E 137°12'2822.4
2018-Apr-17 19:08N 34°20' E 137°45'422.4
2018-Apr-17 18:58N 34°21' E 137°50'1022.0
2018-Apr-17 18:30N 34°23' E 138°02'1421.8
2018-Apr-17 17:50N 34°26' E 138°19'721.7
2018-Apr-17 17:30N 34°28' E 138°27'1121.9
2018-Apr-17 16:59N 34°30' E 138°41'1121.9
2018-Apr-17 16:30N 34°32' E 138°54'1020.3
2018-Apr-17 16:00N 34°38' E 139°04'1121.3
2018-Apr-17 15:29N 34°46' E 139°12'1021.4
2018-Apr-17 15:00N 34°54' E 139°21'1020.7
2018-Apr-17 14:31N 34°60' E 139°32'1121.2
2018-Apr-17 14:00N 35°06' E 139°42'917.9
2018-Apr-17 13:30N 35°14' E 139°46'612.8
2018-Apr-17 13:00N 35°20' E 139°43'918.7
2018-Apr-17 12:31N 35°28' E 139°48'817.0
2018-Apr-17 12:01N 35°36' E 139°50'2 2.6
2018-Apr-17 11:11N 35°37' E 139°48'0 0.0
2018-Apr-17 10:20N 35°37' E 139°48'0 0.0
2018-Apr-17 09:53N 35°37' E 139°48'0 0.0
2018-Apr-17 09:23N 35°37' E 139°48'0 0.0
2018-Apr-17 08:53N 35°37' E 139°48'0 0.0
2018-Apr-17 08:29N 35°37' E 139°48'0 0.0
2018-Apr-17 07:11N 35°37' E 139°48'0 0.0
2018-Apr-17 04:50N 35°37' E 139°48'0 0.0
2018-Apr-17 02:56N 35°37' E 139°48'0 0.0
2018-Apr-17 02:29N 35°37' E 139°48'0 0.0
2018-Apr-17 01:56N 35°37' E 139°48'0 0.0
2018-Apr-17 01:23N 35°37' E 139°48'0 0.0
2018-Apr-17 00:17N 35°37' E 139°48'0 0.0
2018-Apr-16 23:47N 35°37' E 139°48'0 0.0
2018-Apr-16 23:29N 35°37' E 139°48'0 0.3
2018-Apr-16 22:56N 35°37' E 139°48'0 0.0
2018-Apr-16 22:29N 35°37' E 139°48'0 0.0
2018-Apr-16 21:53N 35°37' E 139°48'0 0.0
2018-Apr-16 21:29N 35°37' E 139°48'0 0.0
2018-Apr-16 20:59N 35°37' E 139°48'0 0.0
2018-Apr-16 20:29N 35°37' E 139°48'0 0.0
2018-Apr-16 19:56N 35°37' E 139°48'0 0.0
2018-Apr-16 19:29N 35°37' E 139°48'0 0.0
2018-Apr-16 18:59N 35°37' E 139°48'0 0.0
2018-Apr-16 18:29N 35°37' E 139°48'0 0.0
2018-Apr-16 17:59N 35°37' E 139°48'0 0.0
2018-Apr-16 17:29N 35°37' E 139°48'0 0.0
2018-Apr-16 16:56N 35°37' E 139°48'0 0.0
2018-Apr-16 16:29N 35°37' E 139°48'0 0.0
2018-Apr-16 15:53N 35°37' E 139°48'0 0.0
2018-Apr-16 15:29N 35°37' E 139°48'0 0.0
2018-Apr-16 14:59N 35°37' E 139°48'0 0.0
2018-Apr-16 14:29N 35°37' E 139°48'0 0.0
2018-Apr-16 13:59N 35°37' E 139°48'0 0.0
2018-Apr-16 13:29N 35°37' E 139°48'0 0.0
2018-Apr-16 12:56N 35°37' E 139°48'0 0.0
2018-Apr-16 12:29N 35°37' E 139°48'0 0.0
2018-Apr-16 11:59N 35°37' E 139°48'0 0.0
2018-Apr-16 11:29N 35°37' E 139°48'0 0.0
2018-Apr-16 10:56N 35°37' E 139°48'0 0.0
2018-Apr-16 10:23N 35°37' E 139°48'0 0.0
2018-Apr-16 09:59N 35°37' E 139°48'0 0.0
2018-Apr-16 09:26N 35°37' E 139°48'0 0.0
2018-Apr-16 08:56N 35°37' E 139°48'0 0.0
2018-Apr-16 08:29N 35°37' E 139°48'0 0.0
2018-Apr-16 07:59N 35°37' E 139°48'0 0.0
2018-Apr-16 07:29N 35°37' E 139°48'0 0.0
2018-Apr-16 06:59N 35°37' E 139°48'0 0.0
2018-Apr-16 06:29N 35°37' E 139°48'0 0.0
2018-Apr-16 05:59N 35°37' E 139°48'0 0.0
2018-Apr-16 05:29N 35°37' E 139°48'0 0.0
2018-Apr-16 04:53N 35°37' E 139°48'0 0.0
2018-Apr-16 04:29N 35°37' E 139°48'0 0.0
2018-Apr-16 03:59N 35°37' E 139°48'0 0.0
2018-Apr-16 03:29N 35°37' E 139°48'0 0.0
2018-Apr-16 02:53N 35°37' E 139°48'0 0.0
2018-Apr-16 02:26N 35°37' E 139°48'0 0.0
2018-Apr-16 01:59N 35°37' E 139°48'0 0.0
2018-Apr-16 01:29N 35°37' E 139°48'0 0.0
2018-Apr-16 00:53N 35°37' E 139°48'0 0.0
2018-Apr-16 00:29N 35°37' E 139°48'0 0.0
2018-Apr-15 23:53N 35°37' E 139°48'0 0.0
2018-Apr-15 23:29N 35°37' E 139°48'0 0.0
2018-Apr-15 22:59N 35°37' E 139°48'0 0.0
2018-Apr-15 22:29N 35°37' E 139°48'0 0.0
2018-Apr-15 21:59N 35°37' E 139°48'0 0.0
2018-Apr-15 21:23N 35°37' E 139°48'0 0.0
2018-Apr-15 21:00N 35°37' E 139°48'0 0.4
2018-Apr-15 20:29N 35°37' E 139°47'510.8
2018-Apr-15 20:01N 35°33' E 139°52'816.5
2018-Apr-15 19:30N 35°25' E 139°47'713.5
2018-Apr-15 19:00N 35°19' E 139°44'612.7
2018-Apr-15 18:30N 35°13' E 139°47'917.7
2018-Apr-15 18:00N 35°05' E 139°44'1019.6
2018-Apr-15 17:30N 34°58' E 139°35'1120.9
2018-Apr-15 16:59N 34°52' E 139°24'1020.7
2018-Apr-15 16:30N 34°46' E 139°14'1020.5
2018-Apr-15 16:00N 34°39' E 139°05'1019.9
2018-Apr-15 15:30N 34°33' E 138°56'1121.7
2018-Apr-15 15:00N 34°31' E 138°43'1121.3
2018-Apr-15 14:29N 34°31' E 138°29'1121.7
2018-Apr-15 14:00N 34°30' E 138°17'1122.0
2018-Apr-15 13:30N 34°29' E 138°04'6520.9
2018-Apr-15 10:23N 34°08' E 136°49'1120.2
2018-Apr-15 09:50N 34°00' E 136°39'7117.9
2018-Apr-15 05:52N 33°35' E 135°19'921.3
2018-Apr-15 05:28N 33°42' E 135°12'1021.9
2018-Apr-15 05:00N 33°49' E 135°04'1121.8
2018-Apr-15 04:30N 33°59' E 134°59'1122.5
2018-Apr-15 04:00N 34°10' E 134°58'1224.0
2018-Apr-15 03:31N 34°22' E 134°60'1122.9
2018-Apr-15 03:01N 34°33' E 135°03'816.9
2018-Apr-15 02:30N 34°35' E 134°53'1121.3
2018-Apr-15 02:01N 34°33' E 134°40'1122.1
2018-Apr-15 01:30N 34°34' E 134°27'1121.7
2018-Apr-15 01:00N 34°34' E 134°13'919.0
2018-Apr-15 00:30N 34°31' E 134°02'4 7.6
2018-Apr-15 00:00N 34°31' E 133°58'0 0.0
2018-Apr-14 21:19N 34°31' E 133°58'5 5.1
2018-Apr-14 20:26N 34°26' E 133°56'1417.9
2018-Apr-14 19:38N 34°18' E 133°42'319.2
2018-Apr-14 19:30N 34°18' E 133°39'4317.7
2018-Apr-14 17:04N 34°04' E 132°49'221.0
2018-Apr-14 16:58N 34°02' E 132°48'919.8
2018-Apr-14 16:30N 33°56' E 132°40'1020.7
2018-Apr-14 16:00N 33°49' E 132°31'1221.3
2018-Apr-14 15:27N 33°44' E 132°18'1521.3
2018-Apr-14 14:45N 33°42' E 131°60'622.9
2018-Apr-14 14:30N 33°43' E 131°53'1223.1
2018-Apr-14 14:00N 33°46' E 131°40'1223.2
2018-Apr-14 13:31N 33°49' E 131°26'1122.8
2018-Apr-14 13:00N 33°51' E 131°13'1020.0
2018-Apr-14 12:31N 33°57' E 131°03'612.0
2018-Apr-14 12:00N 33°55' E 130°56'4 8.8
2018-Apr-14 11:31N 33°59' E 130°53'1019.1
2018-Apr-14 11:01N 34°03' E 130°42'1122.8
2018-Apr-14 10:31N 33°58' E 130°29'1121.2
2018-Apr-14 10:00N 33°51' E 130°20'1121.3
2018-Apr-14 09:31N 33°41' E 130°16'815.9
2018-Apr-14 09:00N 33°37' E 130°24'0 0.9
2018-Apr-14 08:29N 33°38' E 130°24'0 0.0
2018-Apr-14 07:59N 33°38' E 130°24'0 0.0
2018-Apr-14 07:29N 33°38' E 130°24'0 0.0
2018-Apr-14 06:59N 33°38' E 130°24'0 0.0
2018-Apr-14 06:29N 33°38' E 130°24'0 0.0
2018-Apr-14 05:59N 33°38' E 130°24'0 0.0
2018-Apr-14 05:29N 33°38' E 130°24'0 0.0
2018-Apr-14 04:59N 33°38' E 130°24'0 0.0
2018-Apr-14 04:29N 33°38' E 130°24'0 0.0
2018-Apr-14 03:59N 33°38' E 130°24'0 0.0
2018-Apr-14 03:29N 33°38' E 130°24'0 0.0
2018-Apr-14 02:59N 33°38' E 130°24'0 0.0
2018-Apr-14 02:29N 33°38' E 130°24'0 0.0
2018-Apr-14 01:59N 33°38' E 130°24'0 0.0
2018-Apr-14 01:29N 33°38' E 130°24'0 0.0
2018-Apr-14 00:59N 33°38' E 130°24'0 0.0
2018-Apr-14 00:29N 33°38' E 130°24'0 0.0
2018-Apr-13 23:59N 33°38' E 130°24'0 0.0
2018-Apr-13 23:29N 33°38' E 130°24'0 0.0
2018-Apr-13 22:59N 33°38' E 130°24'0 0.0
2018-Apr-13 22:29N 33°38' E 130°24'0 0.0
2018-Apr-13 21:59N 33°38' E 130°24'0 0.0
2018-Apr-13 21:29N 33°38' E 130°24'0 0.0
2018-Apr-13 20:59N 33°38' E 130°24'0 0.0
2018-Apr-13 20:30N 33°38' E 130°24'1 2.5
2018-Apr-13 20:00N 33°37' E 130°23'714.1
2018-Apr-13 19:30N 33°41' E 130°16'918.6
2018-Apr-13 19:00N 33°50' E 130°19'1019.7
2018-Apr-13 18:30N 33°58' E 130°26'1020.5
2018-Apr-13 18:00N 34°03' E 130°37'1020.3
2018-Apr-13 17:30N 34°02' E 130°49'816.2
2018-Apr-13 17:00N 33°55' E 130°53'511.0
2018-Apr-13 16:30N 33°58' E 130°59'815.5
2018-Apr-13 16:00N 33°55' E 131°07'918.1
2018-Apr-13 15:30N 33°51' E 131°17'917.5
2018-Apr-13 15:00N 33°49' E 131°27'918.0
2018-Apr-13 14:30N 33°47' E 131°38'612.0
2018-Apr-13 14:00N 33°45' E 131°44'1019.1
2018-Apr-13 13:30N 33°36' E 131°49'918.6
2018-Apr-13 13:00N 33°27' E 131°52'1019.6
2018-Apr-13 12:30N 33°19' E 131°46'4 6.0
2018-Apr-13 11:52N 33°15' E 131°45'0 0.0
2018-Apr-13 11:25N 33°15' E 131°45'0 0.6
2018-Apr-13 10:58N 33°15' E 131°44'510.0
2018-Apr-13 10:30N 33°18' E 131°49'1020.9
2018-Apr-13 10:00N 33°16' E 132°01'1222.9
2018-Apr-13 09:30N 33°07' E 132°09'19919.5
2018-Apr-12 23:19N 33°37' E 136°05'1822.5
2018-Apr-12 22:31N 33°49' E 136°21'122.0
2018-Apr-12 22:27N 33°50' E 136°23'1122.7
2018-Apr-12 21:58N 33°57' E 136°33'1122.4
2018-Apr-12 21:30N 34°03' E 136°43'5121.7
2018-Apr-12 19:11N 34°19' E 137°41'421.7
2018-Apr-12 19:00N 34°20' E 137°45'1221.5
2018-Apr-12 18:26N 34°22' E 138°00'921.2
2018-Apr-12 18:00N 34°24' E 138°11'1021.0
2018-Apr-12 17:30N 34°27' E 138°23'1020.8
2018-Apr-12 17:00N 34°29' E 138°35'1020.7
2018-Apr-12 16:30N 34°31' E 138°48'1019.9
2018-Apr-12 16:00N 34°35' E 138°59'1322.2
2018-Apr-12 15:25N 34°44' E 139°10'921.6
2018-Apr-12 15:00N 34°51' E 139°17'1020.0
2018-Apr-12 14:30N 34°57' E 139°27'1121.3
2018-Apr-12 14:00N 35°03' E 139°38'1019.7
2018-Apr-12 13:30N 35°10' E 139°45'713.4
2018-Apr-12 13:00N 35°17' E 139°45'714.7
2018-Apr-12 12:31N 35°24' E 139°43'1019.6
2018-Apr-12 12:00N 35°32' E 139°51'611.6
2018-Apr-12 11:30N 35°37' E 139°48'0 0.2
2018-Apr-12 10:54N 35°37' E 139°48'0 0.0
2018-Apr-12 10:27N 35°37' E 139°48'0 0.0
2018-Apr-12 09:30N 35°37' E 139°48'0 0.0
2018-Apr-12 08:54N 35°37' E 139°48'0 0.0
2018-Apr-12 08:30N 35°37' E 139°48'0 0.0
2018-Apr-12 07:42N 35°37' E 139°48'0 0.0
2018-Apr-12 07:18N 35°37' E 139°48'0 0.0
2018-Apr-12 06:54N 35°37' E 139°48'0 0.0
2018-Apr-12 06:27N 35°37' E 139°48'0 0.0
2018-Apr-12 06:00N 35°37' E 139°48'0 0.0
2018-Apr-12 05:30N 35°37' E 139°48'0 0.0
2018-Apr-12 05:00N 35°37' E 139°48'0 0.0
2018-Apr-12 04:24N 35°37' E 139°48'0 0.0
2018-Apr-12 04:00N 35°37' E 139°48'0 0.0
2018-Apr-12 03:27N 35°37' E 139°48'0 0.0
2018-Apr-12 03:00N 35°37' E 139°48'0 0.0
2018-Apr-12 02:27N 35°37' E 139°48'0 0.0
2018-Apr-12 01:51N 35°37' E 139°48'0 0.0
2018-Apr-12 01:30N 35°37' E 139°48'0 0.0
2018-Apr-12 00:51N 35°37' E 139°48'0 0.0
2018-Apr-12 00:24N 35°37' E 139°48'0 0.0
2018-Apr-11 23:12N 35°37' E 139°48'0 0.0
2018-Apr-11 23:00N 35°37' E 139°48'0 0.0
2018-Apr-11 22:30N 35°37' E 139°48'0 0.0
2018-Apr-11 21:54N 35°37' E 139°48'0 0.0
2018-Apr-11 21:30N 35°37' E 139°48'0 0.0
2018-Apr-11 21:00N 35°37' E 139°48'0 0.0
2018-Apr-11 20:30N 35°37' E 139°48'0 0.7
2018-Apr-11 20:01N 35°37' E 139°48'611.7
2018-Apr-11 19:30N 35°32' E 139°52'917.5
2018-Apr-11 19:00N 35°24' E 139°46'612.8
2018-Apr-11 18:30N 35°18' E 139°45'612.6
2018-Apr-11 18:00N 35°12' E 139°47'1019.3
2018-Apr-11 17:30N 35°03' E 139°42'1020.8
2018-Apr-11 17:00N 34°57' E 139°32'1422.2
2018-Apr-11 16:23N 34°49' E 139°18'1521.4
2018-Apr-11 15:41N 34°38' E 139°06'420.5
2018-Apr-11 15:30N 34°35' E 139°03'1622.2
2018-Apr-11 14:47N 34°30' E 138°45'722.9
2018-Apr-11 14:30N 34°29' E 138°36'1222.7
2018-Apr-11 13:58N 34°26' E 138°22'1022.4
2018-Apr-11 13:30N 34°24' E 138°10'1121.8
2018-Apr-11 13:00N 34°21' E 137°57'6121.4
2018-Apr-11 10:10N 34°02' E 136°48'422.2
2018-Apr-11 10:00N 33°60' E 136°44'8517.2
2018-Apr-11 05:03N 33°52' E 135°02'121.8
2018-Apr-11 05:00N 33°53' E 135°01'1020.7
2018-Apr-11 04:31N 34°03' E 134°59'1121.1
2018-Apr-11 04:01N 34°14' E 134°58'1121.7
2018-Apr-11 03:30N 34°24' E 135°00'1121.2
2018-Apr-11 03:00N 34°35' E 135°04'1019.6
2018-Apr-11 02:31N 34°34' E 134°52'1121.7
2018-Apr-11 02:00N 34°33' E 134°39'  

Dump ship's entire track history